Terminal Aerodrome Forecast
Issued by NWS Charleston, WV

Current Version | Previous Version | Graphics & Text | Print | Product List | Glossary On
Versions: 1 2 3 4 5 6 7 8 9 10 11 12 13 14 15 16 17 18 19 20 21 22 23 24 25 26 27 28
000
FTUS41 KRLX 241700 AAA
TAFCRW
TAF AMD
KCRW 241717Z 2417/2512 36005KT 6SM -SHRA BR VCTS BKN008CB OVC014
      TEMPO 2417/2418 4SM -TSRA
     FM241800 35006KT 6SM -SHRA BR BKN008
     FM242100 34006KT P6SM BKN013
     FM250000 00000KT P6SM SCT040
     FM250500 00000KT 5SM BR SCT001
     FM250700 00000KT 1SM BR BKN001=

USA.gov is the U.S. government's official web portal to all federal, state and local government web resources and services.